createdAt,value
2022-12-02T00:00:44.382Z,20.3
2022-12-02T00:02:44.728Z,20.4
2022-12-02T00:04:44.316Z,20.3
2022-12-02T00:06:44.402Z,20.3
2022-12-02T00:08:44.465Z,20.3
2022-12-02T00:10:44.350Z,20.5
2022-12-02T00:12:44.538Z,20.4
2022-12-02T00:14:44.448Z,20.2
2022-12-02T00:18:52.664Z,20.3
2022-12-02T00:20:52.643Z,20.2
2022-12-02T00:22:52.715Z,20.2
2022-12-02T00:24:53.028Z,20.1
2022-12-02T00:26:52.654Z,20.2
2022-12-02T00:28:52.638Z,20.3
2022-12-02T00:30:52.615Z,20.3
2022-12-02T00:32:52.638Z,20.7
2022-12-02T00:34:52.918Z,20.7
2022-12-02T00:36:52.618Z,20.7
2022-12-02T00:38:52.669Z,20.8
2022-12-02T00:40:52.683Z,20.5
2022-12-02T00:42:52.665Z,20.6
2022-12-02T00:44:52.865Z,20.6
2022-12-02T00:46:52.757Z,20.6
2022-12-02T00:48:52.677Z,20.3
2022-12-02T00:51:22.657Z,20.2
2022-12-02T00:53:22.678Z,20.4
2022-12-02T00:55:22.648Z,20.0
2022-12-02T00:57:22.661Z,20.2
2022-12-02T00:59:22.675Z,20.0
2022-12-02T01:01:22.707Z,19.8
2022-12-02T01:03:22.767Z,19.9
2022-12-02T01:05:22.641Z,20.0
2022-12-02T01:07:22.674Z,19.8
2022-12-02T01:09:22.632Z,20.0
2022-12-02T01:11:22.676Z,20.3
2022-12-02T01:13:22.725Z,20.4
2022-12-02T01:15:22.686Z,20.0
2022-12-02T01:17:22.616Z,20.0
2022-12-02T01:19:22.662Z,20.1
2022-12-02T01:21:22.687Z,20.1
2022-12-02T01:23:22.705Z,19.7
2022-12-02T01:25:22.721Z,19.8
2022-12-02T01:27:22.742Z,19.9
2022-12-02T01:29:22.650Z,19.5
2022-12-02T01:31:22.735Z,19.3
2022-12-02T01:33:22.687Z,19.2
2022-12-02T01:35:22.668Z,19.1
2022-12-02T01:37:22.702Z,19.1
2022-12-02T01:39:22.656Z,19.3
2022-12-02T01:41:22.642Z,19.4
2022-12-02T01:43:22.746Z,19.3
2022-12-02T01:45:22.672Z,19.5
2022-12-02T01:47:22.767Z,19.7
2022-12-02T01:49:22.658Z,19.9
2022-12-02T01:51:22.738Z,20.0
2022-12-02T01:53:22.697Z,20.0
2022-12-02T01:55:22.725Z,20.4
2022-12-02T01:57:22.637Z,20.2
2022-12-02T01:59:22.672Z,20.2
2022-12-02T02:01:22.757Z,20.4
2022-12-02T02:03:22.689Z,20.3
2022-12-02T02:05:22.653Z,20.5
2022-12-02T02:07:22.748Z,20.6
2022-12-02T02:09:22.672Z,20.5
2022-12-02T02:11:22.723Z,20.3
2022-12-02T02:13:22.684Z,20.2
2022-12-02T02:15:22.814Z,20.5
2022-12-02T02:17:22.659Z,20.5
2022-12-02T02:19:22.674Z,20.3
2022-12-02T02:21:22.762Z,20.5
2022-12-02T02:23:22.688Z,20.5
2022-12-02T02:25:22.671Z,20.2
2022-12-02T02:27:22.689Z,20.0
2022-12-02T02:29:22.730Z,20.2
2022-12-02T02:31:22.745Z,20.0
2022-12-02T02:33:22.672Z,19.9
2022-12-02T02:35:22.710Z,19.9
2022-12-02T02:37:22.686Z,19.6
2022-12-02T02:39:22.715Z,19.6
2022-12-02T02:41:52.702Z,19.7
2022-12-02T02:43:52.704Z,19.6
2022-12-02T02:45:52.789Z,19.6
2022-12-02T02:47:52.688Z,19.6
2022-12-02T02:49:52.752Z,19.6
2022-12-02T02:51:52.739Z,19.6
2022-12-02T02:53:52.683Z,19.5
2022-12-02T02:55:52.853Z,19.3
2022-12-02T02:57:52.698Z,19.2
2022-12-02T02:59:52.716Z,19.4
2022-12-02T03:01:52.774Z,19.2
2022-12-02T03:03:52.728Z,19.2
2022-12-02T03:05:52.766Z,19.1
2022-12-02T03:07:52.769Z,19.1
2022-12-02T03:09:52.681Z,19.2
2022-12-02T03:11:52.738Z,19.1
2022-12-02T03:13:52.685Z,19.3
2022-12-02T03:15:52.723Z,19.1
2022-12-02T03:17:52.696Z,18.8
2022-12-02T03:19:52.707Z,19.2
2022-12-02T03:21:52.718Z,19.1
2022-12-02T03:23:52.806Z,19.5
2022-12-02T03:25:52.751Z,19.6
2022-12-02T03:27:52.744Z,19.6
2022-12-02T03:29:52.742Z,19.6
2022-12-02T03:31:52.728Z,19.6
2022-12-02T03:33:52.705Z,19.9
2022-12-02T03:35:52.741Z,19.9
2022-12-02T03:37:52.699Z,20.0
2022-12-02T03:39:52.728Z,20.0
2022-12-02T03:41:52.749Z,20.0
2022-12-02T03:43:52.729Z,20.0
2022-12-02T03:45:52.791Z,19.8
2022-12-02T03:47:52.733Z,19.7
2022-12-02T03:49:52.764Z,19.5
2022-12-02T03:51:52.760Z,19.6
2022-12-02T03:53:52.709Z,19.5
2022-12-02T03:55:52.736Z,19.2
2022-12-02T03:57:52.726Z,19.5
2022-12-02T03:59:52.875Z,19.4
2022-12-02T04:01:52.796Z,19.5
2022-12-02T04:03:52.713Z,19.4
2022-12-02T04:05:52.760Z,19.5
2022-12-02T04:07:52.790Z,19.8
2022-12-02T04:09:52.852Z,19.8
2022-12-02T04:11:52.761Z,20.0
2022-12-02T04:13:52.767Z,20.1
2022-12-02T04:15:52.862Z,20.2
2022-12-02T04:17:52.750Z,20.7
2022-12-02T04:19:52.762Z,20.5
2022-12-02T04:21:53.021Z,20.4
2022-12-02T04:23:52.757Z,20.4
2022-12-02T04:25:52.804Z,20.3
2022-12-02T04:27:52.756Z,20.2
2022-12-02T04:29:52.777Z,20.3
2022-12-02T04:32:22.807Z,20.4
2022-12-02T04:34:22.741Z,20.4
2022-12-02T04:36:22.784Z,20.4
2022-12-02T04:38:22.759Z,20.5
2022-12-02T04:40:22.793Z,20.6
2022-12-02T04:42:22.774Z,20.9
2022-12-02T04:44:22.737Z,20.8
2022-12-02T04:46:22.792Z,20.9
2022-12-02T04:48:22.783Z,20.7
2022-12-02T04:50:22.763Z,20.7
2022-12-02T04:52:22.774Z,21.0
2022-12-02T04:54:22.761Z,21.5
2022-12-02T04:56:22.791Z,21.6
2022-12-02T04:58:22.779Z,21.5
2022-12-02T05:00:22.766Z,21.6
2022-12-02T05:02:22.777Z,21.8
2022-12-02T05:04:22.814Z,21.9
2022-12-02T05:06:22.775Z,21.2
2022-12-02T05:08:22.772Z,20.9
2022-12-02T05:10:22.834Z,20.9
2022-12-02T05:12:22.777Z,20.8
2022-12-02T05:14:22.798Z,20.9
2022-12-02T05:16:22.939Z,20.9
2022-12-02T05:18:22.750Z,21.1
2022-12-02T05:20:22.802Z,21.1
2022-12-02T05:22:22.797Z,21.0
2022-12-02T05:24:22.832Z,21.0
2022-12-02T05:26:22.815Z,21.3
2022-12-02T05:28:22.828Z,21.3
2022-12-02T05:30:22.790Z,21.8
2022-12-02T05:32:22.835Z,21.8
2022-12-02T05:34:22.821Z,22.0
2022-12-02T05:36:22.805Z,22.0
2022-12-02T05:38:22.864Z,22.0
2022-12-02T05:40:22.854Z,21.8
2022-12-02T05:42:22.808Z,21.6
2022-12-02T05:44:22.770Z,21.8
2022-12-02T05:46:22.927Z,21.7
2022-12-02T05:48:22.822Z,21.9
2022-12-02T05:50:22.851Z,22.0
2022-12-02T05:52:22.795Z,21.7
2022-12-02T05:54:22.804Z,21.5
2022-12-02T05:56:22.782Z,21.6
2022-12-02T05:58:22.899Z,21.5
2022-12-02T06:00:22.772Z,21.8
2022-12-02T06:02:23.138Z,21.5
2022-12-02T06:04:22.836Z,21.5
2022-12-02T06:06:22.818Z,21.6
2022-12-02T06:08:22.825Z,21.8
2022-12-02T06:10:22.943Z,21.7
2022-12-02T06:12:22.803Z,21.5
2022-12-02T06:14:22.827Z,21.2
2022-12-02T06:16:22.823Z,21.0
2022-12-02T06:18:22.807Z,21.0
2022-12-02T06:20:52.847Z,21.0
2022-12-02T06:22:52.804Z,20.9
2022-12-02T06:24:53.051Z,21.1
2022-12-02T06:26:52.820Z,21.0
2022-12-02T06:28:52.805Z,21.1
2022-12-02T06:30:52.863Z,21.0
2022-12-02T06:32:52.845Z,21.3
2022-12-02T06:34:53.209Z,21.1
2022-12-02T06:36:52.821Z,21.1
2022-12-02T06:38:52.794Z,21.1
2022-12-02T06:40:52.798Z,21.5
2022-12-02T06:42:52.786Z,21.7
2022-12-02T06:44:53.145Z,21.5
2022-12-02T06:46:52.833Z,21.4
2022-12-02T06:48:52.840Z,21.1
2022-12-02T06:50:52.846Z,20.9
2022-12-02T06:52:52.875Z,20.8
2022-12-02T06:54:53.118Z,20.4
2022-12-02T06:56:52.846Z,20.3
2022-12-02T06:58:52.835Z,20.4
2022-12-02T07:00:52.967Z,20.1
2022-12-02T07:02:52.948Z,20.2
2022-12-02T07:04:53.088Z,20.0
2022-12-02T07:06:52.839Z,20.1
2022-12-02T07:08:52.845Z,20.2
2022-12-02T07:10:52.881Z,20.3
2022-12-02T07:12:52.908Z,20.5
2022-12-02T07:14:53.081Z,20.7
2022-12-02T07:16:52.882Z,20.7
2022-12-02T07:18:52.869Z,20.6
2022-12-02T07:20:52.923Z,20.6
2022-12-02T07:22:52.899Z,20.7
2022-12-02T07:24:53.007Z,20.6
2022-12-02T07:26:52.935Z,20.4
2022-12-02T07:28:52.869Z,20.2
2022-12-02T07:30:52.940Z,20.0
2022-12-02T07:33:05.816Z,19.5
2022-12-02T07:35:05.729Z,19.5
2022-12-02T07:37:05.710Z,19.5
2022-12-02T07:39:06.960Z,19.3
2022-12-02T07:41:05.889Z,19.4
2022-12-02T07:43:05.828Z,19.2
2022-12-02T07:45:05.817Z,19.2
2022-12-02T07:47:05.885Z,19.3
2022-12-02T07:49:05.737Z,19.5
2022-12-02T07:51:05.788Z,19.8
2022-12-02T07:53:05.763Z,19.9
2022-12-02T07:55:05.767Z,20.0
2022-12-02T07:57:05.780Z,19.9
2022-12-02T07:59:13.316Z,20.0
2022-12-02T08:01:05.789Z,20.0
2022-12-02T08:03:05.764Z,20.2
2022-12-02T08:05:05.779Z,20.2
2022-12-02T08:07:05.768Z,20.0
2022-12-02T08:09:05.746Z,19.9
2022-12-02T08:11:05.914Z,19.4
2022-12-02T08:13:05.784Z,19.6
2022-12-02T08:15:05.836Z,19.5
2022-12-02T08:17:05.821Z,19.7
2022-12-02T08:19:05.797Z,19.6
2022-12-02T08:21:08.836Z,19.7
2022-12-02T08:23:05.827Z,19.9
2022-12-02T08:25:05.799Z,20.0
2022-12-02T08:27:05.819Z,20.1
2022-12-02T08:29:05.890Z,20.3
2022-12-02T08:31:05.829Z,20.1
2022-12-02T08:33:05.784Z,20.0
2022-12-02T08:35:05.769Z,19.8
2022-12-02T08:37:05.766Z,20.0
2022-12-02T08:39:06.116Z,19.8
2022-12-02T08:41:09.409Z,19.6
2022-12-02T08:43:05.909Z,19.7
2022-12-02T08:45:05.824Z,19.9
2022-12-02T08:47:05.773Z,19.9
2022-12-02T08:49:05.776Z,20.0
2022-12-02T08:51:05.780Z,19.9
2022-12-02T08:53:05.757Z,19.8
2022-12-02T08:55:35.795Z,19.7
2022-12-02T08:57:35.823Z,19.7
2022-12-02T08:59:35.794Z,19.7
2022-12-02T09:01:35.796Z,19.7
2022-12-02T09:03:35.802Z,19.7
2022-12-02T09:05:35.813Z,19.6
2022-12-02T09:07:35.839Z,20.0
2022-12-02T09:09:35.880Z,20.2
2022-12-02T09:11:35.772Z,20.5
2022-12-02T09:13:35.786Z,20.2
2022-12-02T09:15:35.831Z,20.3
2022-12-02T09:17:35.942Z,20.3
2022-12-02T09:19:35.832Z,20.1
2022-12-02T09:21:35.818Z,19.9
2022-12-02T09:23:35.825Z,20.1
2022-12-02T09:25:35.770Z,20.2
2022-12-02T09:27:35.798Z,20.1
2022-12-02T09:29:35.784Z,19.9
2022-12-02T09:31:35.877Z,20.6
2022-12-02T09:33:35.810Z,20.9
2022-12-02T09:35:35.850Z,21.1
2022-12-02T09:37:35.826Z,21.0
2022-12-02T09:39:39.013Z,21.0
2022-12-02T09:41:35.803Z,20.9
2022-12-02T09:43:35.778Z,20.7
2022-12-02T09:45:35.834Z,20.9
2022-12-02T09:47:35.829Z,20.9
2022-12-02T09:49:35.807Z,20.8
2022-12-02T09:51:35.862Z,21.1
2022-12-02T09:53:35.839Z,21.5
2022-12-02T09:55:35.892Z,21.6
2022-12-02T09:57:40.456Z,21.8
2022-12-02T09:59:35.867Z,21.7
2022-12-02T10:01:35.975Z,21.8
2022-12-02T10:03:35.816Z,21.8
2022-12-02T10:05:35.860Z,22.0
2022-12-02T10:07:35.907Z,21.7
2022-12-02T10:09:35.810Z,21.4
2022-12-02T10:11:35.874Z,21.6
2022-12-02T10:13:35.892Z,21.6
2022-12-02T10:15:35.851Z,21.7
2022-12-02T10:17:35.943Z,21.7
2022-12-02T10:19:35.826Z,21.9
2022-12-02T10:21:35.847Z,22.0
2022-12-02T10:23:39.377Z,21.5
2022-12-02T10:27:35.841Z,21.6
2022-12-02T10:29:35.921Z,21.6
2022-12-02T10:31:35.986Z,21.1
2022-12-02T10:33:35.875Z,21.0
2022-12-02T10:35:35.896Z,21.0
2022-12-02T10:37:35.863Z,21.0
2022-12-02T10:39:38.259Z,21.1
2022-12-02T10:41:35.831Z,21.3
2022-12-02T10:43:35.855Z,21.4
2022-12-02T10:46:05.849Z,20.9
2022-12-02T10:48:05.972Z,21.0
2022-12-02T10:50:05.826Z,20.8
2022-12-02T10:52:05.877Z,20.3
2022-12-02T10:54:05.862Z,20.1
2022-12-02T10:56:05.808Z,20.0
2022-12-02T10:58:05.815Z,19.9
2022-12-02T11:00:05.822Z,19.8
2022-12-02T11:02:05.918Z,19.6
2022-12-02T11:04:05.824Z,19.7
2022-12-02T11:06:05.877Z,19.5
2022-12-02T11:08:05.877Z,19.5
2022-12-02T11:10:05.882Z,19.2
2022-12-02T11:12:05.886Z,19.3
2022-12-02T11:14:05.853Z,19.1
2022-12-02T11:16:06.038Z,19.0
2022-12-02T11:18:05.843Z,18.9
2022-12-02T11:20:05.876Z,19.0
2022-12-02T11:22:05.840Z,18.9
2022-12-02T11:24:05.893Z,19.2
2022-12-02T11:26:05.876Z,19.1
2022-12-02T11:28:05.846Z,19.1
2022-12-02T11:30:05.887Z,19.1
2022-12-02T11:32:06.030Z,19.4
2022-12-02T11:34:06.657Z,19.2
2022-12-02T11:36:05.844Z,19.4
2022-12-02T11:38:05.905Z,19.5
2022-12-02T11:40:05.932Z,19.4
2022-12-02T11:42:05.883Z,19.3
2022-12-02T11:44:05.890Z,19.7
2022-12-02T11:46:05.937Z,19.9
2022-12-02T11:48:05.882Z,19.8
2022-12-02T11:50:05.898Z,20.1
2022-12-02T11:52:08.630Z,20.2
2022-12-02T11:54:05.921Z,20.3
2022-12-02T11:56:05.907Z,20.3
2022-12-02T11:58:05.942Z,20.2
2022-12-02T12:00:05.922Z,20.8
2022-12-02T12:02:05.958Z,21.0
2022-12-02T12:04:05.921Z,20.9
2022-12-02T12:06:05.905Z,21.1
2022-12-02T12:08:05.940Z,21.6
2022-12-02T12:10:05.868Z,21.6
2022-12-02T12:12:06.000Z,21.5
2022-12-02T12:14:05.916Z,21.5
2022-12-02T12:16:05.880Z,21.5
2022-12-02T12:18:05.941Z,21.4
2022-12-02T12:20:05.923Z,21.5
2022-12-02T12:22:05.910Z,21.6
2022-12-02T12:24:05.887Z,21.3
2022-12-02T12:26:05.964Z,21.5
2022-12-02T12:28:05.878Z,21.5
2022-12-02T12:30:05.905Z,21.5
2022-12-02T12:32:05.935Z,21.3
2022-12-02T12:36:35.974Z,21.1
2022-12-02T12:38:35.866Z,21.3
2022-12-02T12:40:35.911Z,21.0
2022-12-02T12:42:35.905Z,21.0
2022-12-02T12:44:36.023Z,20.6
2022-12-02T12:46:35.958Z,20.6
2022-12-02T12:48:35.890Z,20.8
2022-12-02T12:50:35.955Z,20.5
2022-12-02T12:52:36.009Z,20.4
2022-12-02T12:54:35.937Z,20.5
2022-12-02T12:56:36.956Z,20.7
2022-12-02T12:58:37.995Z,20.8
2022-12-02T13:00:35.917Z,20.3
2022-12-02T13:02:36.075Z,20.0
2022-12-02T13:04:35.993Z,20.0
2022-12-02T13:06:41.666Z,20.0
2022-12-02T13:08:35.890Z,19.7
2022-12-02T13:10:35.993Z,20.0
2022-12-02T13:12:36.024Z,19.8
2022-12-02T13:14:36.012Z,20.0
2022-12-02T13:16:35.973Z,20.0
2022-12-02T13:18:35.966Z,20.0
2022-12-02T13:20:35.927Z,19.8
2022-12-02T13:22:35.912Z,19.9
2022-12-02T13:24:42.499Z,20.1
2022-12-02T13:26:35.958Z,20.0
2022-12-02T13:28:36.018Z,20.1
2022-12-02T13:30:41.934Z,20.1
2022-12-02T13:32:35.951Z,19.9
2022-12-02T13:34:35.978Z,20.0
2022-12-02T13:36:36.285Z,20.1
2022-12-02T13:38:35.971Z,20.1
2022-12-02T13:40:35.998Z,20.2
2022-12-02T13:42:36.137Z,20.2
2022-12-02T13:44:36.048Z,20.3
2022-12-02T13:46:36.123Z,20.3
2022-12-02T13:48:36.010Z,20.4
2022-12-02T13:50:36.038Z,20.6
2022-12-02T13:52:36.048Z,20.8
2022-12-02T13:54:35.991Z,20.5
2022-12-02T13:56:36.065Z,20.3
2022-12-02T13:58:36.182Z,20.4
2022-12-02T14:00:36.073Z,20.6
2022-12-02T14:02:36.017Z,20.9
2022-12-02T14:04:36.055Z,20.9
2022-12-02T14:06:36.000Z,20.6
2022-12-02T14:08:36.019Z,20.6
2022-12-02T14:10:36.064Z,20.4
2022-12-02T14:12:36.185Z,20.7
2022-12-02T14:14:36.044Z,20.6
2022-12-02T14:16:36.175Z,20.9
2022-12-02T14:18:36.110Z,20.9
2022-12-02T14:20:36.044Z,21.0
2022-12-02T14:23:06.018Z,21.0
2022-12-02T14:25:06.110Z,20.8
2022-12-02T14:27:06.229Z,20.9
2022-12-02T14:31:09.530Z,20.9
2022-12-02T14:33:06.523Z,20.8
2022-12-02T14:37:11.460Z,21.1
2022-12-02T14:39:06.103Z,21.1
2022-12-02T14:41:06.072Z,21.2
2022-12-02T14:42:56.027Z,21.2
2022-12-02T14:44:56.079Z,21.3
2022-12-02T14:46:56.090Z,21.1
2022-12-02T14:49:07.049Z,21.0
2022-12-02T14:50:56.106Z,21.1
2022-12-02T14:52:56.091Z,21.2
2022-12-02T14:54:56.113Z,21.2
2022-12-02T14:56:56.019Z,21.1
2022-12-02T14:58:56.055Z,21.1
2022-12-02T15:00:56.232Z,21.1
2022-12-02T15:02:56.221Z,20.8
2022-12-02T15:04:56.088Z,21.1
2022-12-02T15:06:56.094Z,21.5
2022-12-02T15:08:56.077Z,21.8
2022-12-02T15:10:56.113Z,21.9
2022-12-02T15:12:56.043Z,21.8
2022-12-02T15:15:06.382Z,21.7
2022-12-02T15:16:56.117Z,21.5
2022-12-02T15:18:56.137Z,21.4
2022-12-02T15:20:56.040Z,21.3
2022-12-02T15:22:56.099Z,21.1
2022-12-02T15:24:56.075Z,21.5
2022-12-02T15:26:56.122Z,21.4
2022-12-02T15:28:56.069Z,21.4
2022-12-02T15:30:56.185Z,21.3
2022-12-02T15:32:56.085Z,21.5
2022-12-02T15:34:56.120Z,21.5
2022-12-02T15:37:26.006Z,21.0
2022-12-02T15:39:26.042Z,21.0
2022-12-02T15:41:25.998Z,21.0
2022-12-02T15:43:26.056Z,20.8
2022-12-02T15:45:26.081Z,20.7
2022-12-02T15:47:26.095Z,20.7
2022-12-02T15:49:26.090Z,20.6
2022-12-02T15:51:26.017Z,20.5
2022-12-02T15:53:26.112Z,20.8
2022-12-02T15:55:26.046Z,20.9
2022-12-02T15:57:26.121Z,21.0
2022-12-02T15:59:26.049Z,20.8
2022-12-02T16:01:26.226Z,20.8
2022-12-02T16:03:26.083Z,20.7
2022-12-02T16:05:26.129Z,20.2
2022-12-02T16:07:26.085Z,19.9
2022-12-02T16:09:26.233Z,19.7
2022-12-02T16:11:26.061Z,19.6
2022-12-02T16:13:26.084Z,19.4
2022-12-02T16:15:26.078Z,19.4
2022-12-02T16:17:26.123Z,19.5
2022-12-02T16:19:26.092Z,19.6
2022-12-02T16:21:26.156Z,19.8
2022-12-02T16:23:26.061Z,19.6
2022-12-02T16:25:26.023Z,19.3
2022-12-02T16:27:26.058Z,19.0
2022-12-02T16:29:26.062Z,19.0
2022-12-02T16:31:26.151Z,19.1
2022-12-02T16:33:26.145Z,19.3
2022-12-02T16:35:26.138Z,19.0
2022-12-02T16:37:26.136Z,19.4
2022-12-02T16:39:26.068Z,19.3
2022-12-02T16:41:26.032Z,19.3
2022-12-02T16:43:26.141Z,19.1
2022-12-02T16:45:26.356Z,19.2
2022-12-02T16:47:26.146Z,19.4
2022-12-02T16:49:31.552Z,19.4
2022-12-02T16:51:27.094Z,19.4
2022-12-02T16:53:27.094Z,19.3
2022-12-02T16:55:26.010Z,19.0
2022-12-02T16:57:26.057Z,19.1
2022-12-02T16:59:26.127Z,19.0
2022-12-02T17:01:26.148Z,19.0
2022-12-02T17:03:26.162Z,18.9
2022-12-02T17:05:26.176Z,18.9
2022-12-02T17:07:26.231Z,19.1
2022-12-02T17:09:26.129Z,19.1
2022-12-02T17:11:26.085Z,19.3
2022-12-02T17:13:26.112Z,19.3
2022-12-02T17:15:26.147Z,19.6
2022-12-02T17:17:45.019Z,19.5
2022-12-02T17:19:26.199Z,19.7
2022-12-02T17:21:26.176Z,19.5
2022-12-02T17:23:26.343Z,19.6
2022-12-02T17:25:56.158Z,19.8
2022-12-02T17:27:56.135Z,19.8
2022-12-02T17:29:56.163Z,20.0
2022-12-02T17:31:56.190Z,19.6
2022-12-02T17:33:56.162Z,19.4
2022-12-02T17:35:56.090Z,19.5
2022-12-02T17:37:56.074Z,19.4
2022-12-02T17:39:56.147Z,19.5
2022-12-02T17:41:56.075Z,19.5
2022-12-02T17:43:56.110Z,19.7
2022-12-02T17:45:56.122Z,20.0
2022-12-02T17:47:56.070Z,20.1
2022-12-02T17:49:56.275Z,20.3
2022-12-02T17:52:18.594Z,20.2
2022-12-02T17:53:56.081Z,20.2
2022-12-02T17:55:56.150Z,20.3
2022-12-02T17:57:56.020Z,20.3
2022-12-02T17:59:56.102Z,20.5
2022-12-02T18:01:56.569Z,20.6
2022-12-02T18:03:56.034Z,20.6
2022-12-02T18:05:56.059Z,20.9
2022-12-02T18:07:56.137Z,20.8
2022-12-02T18:09:56.149Z,20.9
2022-12-02T18:11:56.094Z,20.7
2022-12-02T18:14:00.712Z,20.6
2022-12-02T18:15:56.124Z,20.6
2022-12-02T18:17:56.028Z,20.9
2022-12-02T18:19:56.178Z,20.8
2022-12-02T18:21:56.119Z,20.8
2022-12-02T18:23:56.160Z,20.7
2022-12-02T18:25:56.079Z,20.6
2022-12-02T18:27:56.114Z,20.7
2022-12-02T18:29:56.077Z,20.5
2022-12-02T18:31:56.119Z,20.7
2022-12-02T18:33:56.054Z,20.9
2022-12-02T18:35:56.177Z,21.0
2022-12-02T18:37:56.109Z,21.3
2022-12-02T18:39:56.117Z,21.1
2022-12-02T18:41:56.108Z,21.2
2022-12-02T18:43:56.052Z,21.0
2022-12-02T18:45:56.159Z,20.8
2022-12-02T18:47:56.096Z,20.5
2022-12-02T18:49:56.127Z,20.4
2022-12-02T18:51:56.139Z,20.3
2022-12-02T18:53:56.106Z,20.2
2022-12-02T18:55:56.114Z,20.1
2022-12-02T18:57:56.090Z,19.8
2022-12-02T18:59:56.158Z,19.7
2022-12-02T19:01:56.194Z,19.7
2022-12-02T19:03:56.126Z,19.6
2022-12-02T19:05:56.119Z,19.4
2022-12-02T19:07:56.252Z,19.3
2022-12-02T19:09:56.115Z,19.1
2022-12-02T19:11:56.061Z,19.2
2022-12-02T19:13:56.184Z,19.4
2022-12-02T19:15:56.931Z,19.4
2022-12-02T19:18:26.459Z,19.2
2022-12-02T19:20:26.380Z,19.1
2022-12-02T19:22:26.384Z,19.4
2022-12-02T19:24:26.389Z,19.7
2022-12-02T19:26:26.434Z,19.9
2022-12-02T19:28:26.362Z,19.9
2022-12-02T19:30:26.374Z,20.2
2022-12-02T19:32:26.393Z,20.1
2022-12-02T19:34:26.307Z,19.8
2022-12-02T19:36:26.485Z,19.5
2022-12-02T19:38:26.487Z,19.3
2022-12-02T19:40:32.956Z,19.0
2022-12-02T19:42:26.325Z,18.9
2022-12-02T19:44:26.417Z,19.3
2022-12-02T19:46:26.422Z,19.5
2022-12-02T19:48:26.231Z,19.3
2022-12-02T19:50:26.199Z,19.8
2022-12-02T19:52:26.140Z,19.7
2022-12-02T19:54:26.175Z,20.0
2022-12-02T19:56:26.151Z,20.2
2022-12-02T19:58:26.199Z,20.4
2022-12-02T20:00:26.225Z,20.6
2022-12-02T20:02:26.316Z,20.8
2022-12-02T20:04:40.943Z,21.1
2022-12-02T20:06:26.245Z,21.4
2022-12-02T20:08:26.133Z,21.3
2022-12-02T20:10:26.210Z,21.2
2022-12-02T20:12:26.219Z,21.1
2022-12-02T20:14:26.212Z,21.1
2022-12-02T20:16:26.277Z,21.0
2022-12-02T20:18:26.274Z,21.1
2022-12-02T20:20:26.120Z,21.3
2022-12-02T20:22:26.156Z,21.5
2022-12-02T20:24:26.205Z,21.2
2022-12-02T20:26:26.230Z,21.0
2022-12-02T20:28:26.190Z,21.3
2022-12-02T20:30:26.219Z,21.0
2022-12-02T20:32:26.268Z,20.9
2022-12-02T20:34:31.291Z,21.0
2022-12-02T20:36:26.176Z,21.3
2022-12-02T20:38:26.150Z,21.5
2022-12-02T20:40:26.234Z,21.5
2022-12-02T20:42:26.100Z,21.6
2022-12-02T20:44:26.266Z,21.2
2022-12-02T20:46:26.335Z,21.4
2022-12-02T20:48:26.284Z,21.6
2022-12-02T20:50:26.246Z,21.2
2022-12-02T20:52:26.173Z,21.1
2022-12-02T20:56:26.234Z,20.8
2022-12-02T20:58:28.300Z,21.0
2022-12-02T21:00:26.406Z,21.0
2022-12-02T21:02:26.321Z,20.9
2022-12-02T21:04:26.230Z,21.0
2022-12-02T21:06:26.158Z,20.7
2022-12-02T21:08:26.165Z,20.9
2022-12-02T21:10:56.212Z,21.0
2022-12-02T21:13:00.203Z,21.3
2022-12-02T21:14:56.259Z,21.2
2022-12-02T21:16:56.329Z,21.3
2022-12-02T21:18:56.230Z,21.3
2022-12-02T21:20:56.372Z,21.0
2022-12-02T21:22:56.264Z,21.0
2022-12-02T21:24:56.322Z,21.0
2022-12-02T21:26:56.341Z,21.2
2022-12-02T21:28:56.252Z,21.1
2022-12-02T21:30:56.305Z,21.3
2022-12-02T21:32:56.205Z,21.4
2022-12-02T21:34:56.311Z,21.7
2022-12-02T21:36:56.324Z,21.4
2022-12-02T21:38:56.256Z,21.3
2022-12-02T21:40:56.184Z,21.4
2022-12-02T21:42:56.285Z,21.4
2022-12-02T21:44:56.258Z,21.4
2022-12-02T21:46:56.280Z,21.2
2022-12-02T21:50:40.637Z,21.4
2022-12-02T21:52:40.653Z,21.5
2022-12-02T21:54:40.670Z,21.5
2022-12-02T21:56:40.651Z,21.8
2022-12-02T21:58:40.574Z,21.5
2022-12-02T22:00:40.644Z,21.5
2022-12-02T22:02:40.738Z,21.5
2022-12-02T22:05:10.709Z,21.7
2022-12-02T22:07:10.614Z,21.5
2022-12-02T22:09:11.728Z,21.4
2022-12-02T22:11:10.608Z,21.5
2022-12-02T22:13:10.597Z,21.3
2022-12-02T22:15:10.621Z,21.4
2022-12-02T22:17:10.586Z,21.1
2022-12-02T22:19:14.764Z,20.9
2022-12-02T22:21:10.611Z,20.9
2022-12-02T22:23:10.659Z,20.6
2022-12-02T22:25:10.623Z,20.5
2022-12-02T22:27:10.619Z,20.3
2022-12-02T22:29:10.701Z,20.3
2022-12-02T22:31:10.636Z,20.4
2022-12-02T22:33:10.607Z,20.2
2022-12-02T22:35:10.611Z,20.3
2022-12-02T22:37:10.640Z,20.5
2022-12-02T22:39:10.635Z,20.3
2022-12-02T22:41:10.615Z,20.8
2022-12-02T22:43:10.607Z,20.8
2022-12-02T22:45:10.651Z,20.7
2022-12-02T22:47:10.635Z,20.5
2022-12-02T22:49:10.633Z,20.4
2022-12-02T22:51:10.641Z,20.2
2022-12-02T22:53:10.620Z,20.1
2022-12-02T22:55:10.852Z,20.0
2022-12-02T22:57:10.583Z,19.9
2022-12-02T22:59:10.595Z,19.6
2022-12-02T23:01:10.700Z,19.6
2022-12-02T23:03:10.625Z,19.6
2022-12-02T23:05:10.615Z,19.6
2022-12-02T23:07:10.755Z,19.8
2022-12-02T23:09:10.682Z,19.5
2022-12-02T23:11:10.759Z,19.5
2022-12-02T23:13:10.648Z,19.7
2022-12-02T23:15:35.264Z,19.9
2022-12-02T23:17:10.866Z,19.8
2022-12-02T23:19:10.621Z,20.1
2022-12-02T23:21:10.700Z,20.1
2022-12-02T23:23:10.693Z,20.2
2022-12-02T23:25:10.668Z,20.0
2022-12-02T23:27:10.738Z,20.4
2022-12-02T23:29:10.619Z,20.2
2022-12-02T23:31:10.724Z,20.2
2022-12-02T23:33:10.626Z,19.9
2022-12-02T23:35:10.659Z,19.9
2022-12-02T23:37:10.670Z,19.8
2022-12-02T23:39:10.667Z,19.8
2022-12-02T23:41:10.606Z,19.5
2022-12-02T23:43:10.731Z,19.4
2022-12-02T23:45:10.716Z,19.6
2022-12-02T23:47:10.686Z,19.7
2022-12-02T23:49:10.966Z,20.0
2022-12-02T23:51:10.687Z,20.1
2022-12-02T23:53:10.622Z,20.3
2022-12-02T23:55:10.721Z,20.6
2022-12-02T23:57:40.625Z,20.8
2022-12-02T23:59:40.639Z,20.9
